Flight Track Log - Related Links

Times and Time Zones

All times are in EDT time to prevent confusion due to time zone crossing. See the FDX1347 flight status page for this flight to view local times or setup timezone preferences in your user account.

Time Position Orientation Groundspeed Altitude Reporting Facility
EDT Latitude Longitude Course Direction KTS MPH feet Rate Location/Type
Fri 09:53:04 PM 42.7278 -73.8081 244° Southwest 137 158 1,900  Level Boston Center
Fri 09:54:04 PM 42.7083 -73.8614 244° Southwest 249 287 4,100 2,885 Climbing Boston Center
Fri 09:55:15 PM 42.7197 -73.9547 279° West 262 302 8,200 3,389 Climbing Boston Center
Fri 09:56:15 PM 42.7283 -74.0794 275° West 278 320 11,500 2,750 Climbing Boston Center
Fri 09:57:15 PM 42.7369 -74.1900 276° West 319 367 13,700 2,850 Climbing Boston Center
Fri 09:58:15 PM 42.7222 -74.3364 262° West 353 406 17,200 2,900 Climbing Boston Center
Fri 09:59:15 PM 42.6433 -74.4328 222° Southwest 359 413 19,500 2,038 Climbing Boston Center
Fri 10:04:26 PM 42.2540 -75.0290 222° Southwest 419 482 29,800 2,006 Climbing FlightAware ADS-B
Fri 10:05:11 PM 42.2100 -75.1290 239° Southwest 412 474 31,400 2,047 Climbing FlightAware ADS-B
Fri 10:05:51 PM 42.1720 -75.2170 240° Southwest 406 467 32,700 1,976 Climbing FlightAware ADS-B
Fri 10:06:36 PM 42.1290 -75.3170 240° Southwest 397 457 34,200 1,765 Climbing FlightAware ADS-B
Fri 10:07:16 PM 42.0930 -75.3970 239° Southwest 394 453 35,200 1,137 Climbing FlightAware ADS-B
Fri 10:08:11 PM 42.0440 -75.5130 240° Southwest 385 443 36,000 632 Climbing FlightAware ADS-B
Fri 10:08:51 PM 42.0110 -75.5870 239° Southwest 382 440 36,200 706 Climbing FlightAware ADS-B
Fri 10:09:36 PM 41.9710 -75.6790 240° Southwest 385 443 37,000 1,271 Climbing FlightAware ADS-B
Fri 10:10:16 PM 41.9330 -75.7650 239° Southwest 378 435 38,000 1,463 Climbing FlightAware ADS-B
Fri 10:10:58 PM 41.8919 -75.8584 239° Southwest 370 426 39,000 1,151 Climbing FlightAware ADS-B
Fri 10:11:29 PM 41.8648 -75.9196 239° Southwest 369 425 39,400 952 Climbing FlightAware ADS-B
Fri 10:12:01 PM 41.8380 -75.9798 239° Southwest 363 418 40,000 563 Climbing FlightAware ADS-B
Fri 10:12:33 PM 41.8102 -76.0428 239° Southwest 356 410 40,000  Level FlightAware ADS-B
Fri 10:13:04 PM 41.7849 -76.0995 239° Southwest 356 410 40,000  Level FlightAware ADS-B
Fri 10:13:34 PM 41.7589 -76.1585 239° Southwest 360 414 40,000  Level FlightAware ADS-B
Fri 10:14:04 PM 41.7330 -76.2163 239° Southwest 363 418 40,000  Level FlightAware ADS-B
Fri 10:14:35 PM 41.7068 -76.2741 239° Southwest 365 420 40,000  Level FlightAware ADS-B
Fri 10:15:05 PM 41.6803 -76.3344 240° Southwest 367 422 40,000  Level FlightAware ADS-B
Fri 10:15:36 PM 41.6537 -76.3927 239° Southwest 367 422 40,000  Level FlightAware ADS-B
Fri 10:16:06 PM 41.6268 -76.4529 239° Southwest 367 422 40,000  Level FlightAware ADS-B
Fri 10:16:38 PM 41.5991 -76.5154 239° Southwest 369 425 40,000  Level FlightAware ADS-B
Fri 10:17:08 PM 41.5723 -76.5738 238° Southwest 369 425 40,000  Level FlightAware ADS-B
Fri 10:17:39 PM 41.5452 -76.6345 239° Southwest 370 426 40,000  Level FlightAware ADS-B
Fri 10:18:10 PM 41.5180 -76.6929 238° Southwest 369 425 40,000  Level FlightAware ADS-B
Fri 10:18:42 PM 41.4899 -76.7550 239° Southwest 369 425 40,000  Level FlightAware ADS-B
Fri 10:19:12 PM 41.4630 -76.8153 239° Southwest 369 425 40,000  Level FlightAware ADS-B
Fri 10:19:46 PM 41.4333 -76.8794 238° Southwest 369 425 40,000  Level FlightAware ADS-B
Fri 10:20:16 PM 41.4065 -76.9377 239° Southwest 368 423 40,000  Level FlightAware ADS-B
Fri 10:20:46 PM 41.3793 -76.9976 239° Southwest 368 423 40,000  Level FlightAware ADS-B
Fri 10:21:21 PM 41.3484 -77.0652 239° Southwest 368 423 40,000  Level FlightAware ADS-B
Fri 10:21:52 PM 41.3215 -77.1231 238° Southwest 368 423 40,000  Level FlightAware ADS-B
Fri 10:22:22 PM 41.2948 -77.1811 239° Southwest 368 423 40,000  Level FlightAware ADS-B
Fri 10:22:52 PM 41.2677 -77.2408 239° Southwest 368 423 40,000  Level FlightAware ADS-B
Fri 10:23:24 PM 41.2391 -77.3025 238° Southwest 369 425 40,000  Level FlightAware ADS-B
Fri 10:24:08 PM 41.2001 -77.3871 239° Southwest 369 425 40,000  Level FlightAware ADS-B
Fri 10:24:56 PM 41.1574 -77.4777 238° Southwest 370 426 40,000  Level FlightAware ADS-B
Fri 10:25:29 PM 41.1276 -77.5414 238° Southwest 370 426 40,000  Level FlightAware ADS-B
Fri 10:26:01 PM 41.0982 -77.6048 238° Southwest 370 426 40,000  Level FlightAware ADS-B
Fri 10:26:40 PM 41.0634 -77.6801 239° Southwest 370 426 40,000  Level FlightAware ADS-B
Fri 10:27:35 PM 41.0135 -77.7858 238° Southwest 370 426 40,000  Level FlightAware ADS-B
Fri 10:28:20 PM 40.9729 -77.8721 238° Southwest 369 425 40,000  Level FlightAware ADS-B
Fri 10:29:07 PM 40.9307 -77.9617 238° Southwest 368 423 40,000  Level FlightAware ADS-B
Fri 10:30:06 PM 40.8800 -78.0630 237° Southwest 366 421 40,000  Level FlightAware ADS-B
Fri 10:30:46 PM 40.8450 -78.1340 237° Southwest 366 421 40,000  Level FlightAware ADS-B
Fri 10:31:26 PM 40.8060 -78.2100 236° Southwest 367 422 40,000  Level FlightAware ADS-B
Fri 10:32:16 PM 40.7580 -78.3050 236° Southwest 366 421 40,000  Level FlightAware ADS-B
Fri 10:32:56 PM 40.7190 -78.3810 236° Southwest 362 417 40,000  Level FlightAware ADS-B
Fri 10:33:41 PM 40.6770 -78.4650 237° Southwest 362 417 40,000  Level FlightAware ADS-B
Fri 10:34:16 PM 40.6460 -78.5260 236° Southwest 362 417 40,000  Level FlightAware ADS-B
Fri 10:35:01 PM 40.6030 -78.6090 236° Southwest 363 418 40,000  Level FlightAware ADS-B
Fri 10:35:46 PM 40.5600 -78.6920 236° Southwest 360 414 40,000  Level FlightAware ADS-B
Fri 10:36:21 PM 40.5290 -78.7530 236° Southwest 360 414 40,000  Level FlightAware ADS-B
Fri 10:37:06 PM 40.4820 -78.8450 236° Southwest 364 419 40,000  Level FlightAware ADS-B
Fri 10:37:51 PM 40.4390 -78.9290 236° Southwest 363 418 40,000  Level FlightAware ADS-B
Fri 10:38:31 PM 40.4010 -79.0010 235° Southwest 362 417 40,000  Level FlightAware ADS-B
Fri 10:39:11 PM 40.3630 -79.0740 236° Southwest 362 417 40,000  Level FlightAware ADS-B
Fri 10:39:56 PM 40.3220 -79.1520 235° Southwest 360 414 40,000  Level FlightAware ADS-B
Fri 10:40:36 PM 40.2830 -79.2280 236° Southwest 360 414 40,000  Level FlightAware ADS-B
Fri 10:41:21 PM 40.2440 -79.3030 236° Southwest 359 413 40,000  Level FlightAware ADS-B
Fri 10:42:01 PM 40.2040 -79.3780 235° Southwest 358 412 40,000  Level FlightAware ADS-B
Fri 10:42:46 PM 40.1610 -79.4610 236° Southwest 358 412 40,000  Level FlightAware ADS-B
Fri 10:43:26 PM 40.1230 -79.5320 235° Southwest 359 413 40,000  Level FlightAware ADS-B
Fri 10:44:11 PM 40.0810 -79.6110 235° Southwest 360 414 40,000  Level FlightAware ADS-B
Fri 10:44:46 PM 40.0460 -79.6770 235° Southwest 362 417 40,000  Level FlightAware ADS-B
Fri 10:45:31 PM 40.0080 -79.7490 235° Southwest 364 419 40,000  Level FlightAware ADS-B
Fri 10:46:16 PM 39.9620 -79.8360 235° Southwest 367 422 40,000  Level FlightAware ADS-B
Fri 10:46:56 PM 39.9220 -79.9110 235° Southwest 370 426 40,000  Level FlightAware ADS-B
Fri 10:47:41 PM 39.8820 -79.9850 235° Southwest 373 429 40,000  Level FlightAware ADS-B
Fri 10:48:16 PM 39.8430 -80.0590 236° Southwest 376 433 40,000  Level FlightAware ADS-B
Fri 10:48:56 PM 39.8030 -80.1320 235° Southwest 380 437 40,000  Level FlightAware ADS-B
Fri 10:49:46 PM 39.7540 -80.2240 235° Southwest 385 443 40,000  Level FlightAware ADS-B
Fri 10:54:51 PM 39.4330 -80.8140 235° Southwest 392 451 40,000  Level FlightAware ADS-B
Fri 10:55:31 PM 39.3910 -80.8900 234° Southwest 391 450 40,000  Level FlightAware ADS-B
Fri 10:56:16 PM 39.3440 -80.9740 234° Southwest 391 450 40,000  Level FlightAware ADS-B
Fri 10:56:51 PM 39.3070 -81.0420 235° Southwest 392 451 40,000  Level FlightAware ADS-B
Fri 10:57:41 PM 39.2560 -81.1340 234° Southwest 394 453 40,000  Level FlightAware ADS-B
Fri 10:58:21 PM 39.2120 -81.2130 234° Southwest 394 453 40,000  Level FlightAware ADS-B
Fri 10:59:06 PM 39.1640 -81.3000 235° Southwest 393 452 40,000  Level FlightAware ADS-B
Fri 10:59:46 PM 39.1210 -81.3740 233° Southwest 392 451 40,000  Level FlightAware ADS-B
Fri 11:00:26 PM 39.0780 -81.4520 235° Southwest 394 453 40,000  Level FlightAware ADS-B
Fri 11:01:11 PM 39.0310 -81.5360 234° Southwest 395 455 40,000  Level FlightAware ADS-B
Fri 11:01:51 PM 38.9880 -81.6140 235° Southwest 396 456 40,000  Level FlightAware ADS-B
Fri 11:02:36 PM 38.9320 -81.6930 228° Southwest 399 459 40,000  Level FlightAware ADS-B
Fri 11:03:16 PM 38.8780 -81.7560 222° Southwest 401 461 40,000  Level FlightAware ADS-B
Fri 11:03:56 PM 38.8230 -81.8220 223° Southwest 403 464 40,000  Level FlightAware ADS-B
Fri 11:04:41 PM 38.7550 -81.8920 219° Southwest 405 466 40,000  Level FlightAware ADS-B
Fri 11:05:21 PM 38.7000 -81.9510 220° Southwest 406 467 40,000  Level FlightAware ADS-B
Fri 11:06:06 PM 38.6340 -82.0210 220° Southwest 406 467 40,000  Level FlightAware ADS-B
Fri 11:06:46 PM 38.5770 -82.0810 219° Southwest 407 468 40,000  Level FlightAware ADS-B
Fri 11:07:31 PM 38.5100 -82.1530 220° Southwest 408 470 40,000  Level FlightAware ADS-B
Fri 11:08:11 PM 38.4500 -82.2140 219° Southwest 409 471 40,000  Level FlightAware ADS-B
Fri 11:08:51 PM 38.3920 -82.2730 219° Southwest 411 473 40,000  Level FlightAware ADS-B
Fri 11:09:36 PM 38.3270 -82.3420 220° Southwest 408 470 40,000  Level FlightAware ADS-B
Fri 11:10:16 PM 38.2820 -82.4160 232° Southwest 399 459 40,000  Level FlightAware ADS-B
Fri 11:11:00 PM 38.2393 -82.5085 240° Southwest 397 457 40,000  Level FlightAware ADS-B
Fri 11:11:30 PM 38.2103 -82.5701 239° Southwest 394 453 40,000  Level FlightAware ADS-B
Fri 11:12:01 PM 38.1813 -82.6311 239° Southwest 390 449 40,000  Level FlightAware ADS-B
Fri 11:12:32 PM 38.1525 -82.6918 239° Southwest 389 448 40,000  Level FlightAware ADS-B
Fri 11:13:04 PM 38.1228 -82.7540 239° Southwest 387 445 40,000  Level FlightAware ADS-B
Fri 11:14:01 PM 38.0740 -82.8540 238° Southwest 385 443 40,000  Level FlightAware ADS-B
Fri 11:14:41 PM 38.0420 -82.9190 238° Southwest 385 443 40,000  Level FlightAware ADS-B
Fri 11:15:21 PM 38.0100 -82.9850 238° Southwest 385 443 40,000  Level FlightAware ADS-B
Fri 11:16:01 PM 37.9780 -83.0500 238° Southwest 385 443 40,000  Level FlightAware ADS-B
Fri 11:16:29 PM 37.9333 -83.1502 241° Southwest 387 445 40,000  Level FlightAware ADS-B
Fri 11:17:08 PM 37.8966 -83.2258 238° Southwest 388 447 40,000  Level FlightAware ADS-B
Fri 11:17:38 PM 37.8685 -83.2838 238° Southwest 389 448 40,000  Level FlightAware ADS-B
Fri 11:18:13 PM 37.8359 -83.3517 239° Southwest 389 448 40,000  Level FlightAware ADS-B
Fri 11:19:06 PM 37.7950 -83.4330 238° Southwest 388 447 40,000  Level FlightAware ADS-B
Fri 11:19:51 PM 37.7470 -83.5350 239° Southwest 388 447 40,000  Level FlightAware ADS-B
Fri 11:20:26 PM 37.7170 -83.5960 238° Southwest 388 447 40,000  Level FlightAware ADS-B
Fri 11:21:16 PM 37.6760 -83.6770 237° Southwest 388 447 40,000  Level FlightAware ADS-B
Fri 11:21:56 PM 37.6440 -83.7430 239° Southwest 388 447 40,000  Level FlightAware ADS-B
Fri 11:22:11 PM 37.6122 -83.8104 239° Southwest 388 447 40,000  Level FlightAware ADS-B
Fri 11:23:05 PM 37.5609 -83.9139 238° Southwest 386 444 40,000  Level FlightAware ADS-B
Fri 11:23:51 PM 37.5200 -83.9960 238° Southwest 385 443 40,000  Level FlightAware ADS-B
Fri 11:24:09 PM 37.5008 -84.0357 239° Southwest 385 443 40,000  Level FlightAware ADS-B
Fri 11:24:39 PM 37.4723 -84.0928 238° Southwest 385 443 40,000  Level FlightAware ADS-B
Fri 11:25:36 PM 37.4190 -84.2011 238° Southwest 385 443 40,000  Level FlightAware ADS-B
Fri 11:28:26 PM 37.2590 -84.5200 238° Southwest 384 442 40,000  Level FlightAware ADS-B
Fri 11:29:11 PM 37.2190 -84.6010 238° Southwest 385 443 40,000  Level FlightAware ADS-B
Fri 11:29:51 PM 37.1810 -84.6770 238° Southwest 385 443 40,000  Level FlightAware ADS-B
Fri 11:30:36 PM 37.1370 -84.7640 238° Southwest 387 445 40,000  Level FlightAware ADS-B
Fri 11:30:48 PM 37.1234 -84.7904 237° Southwest 388 447 40,000  Level FlightAware ADS-B
Fri 11:31:18 PM 37.0942 -84.8473 237° Southwest 387 445 40,000  Level FlightAware ADS-B
Fri 11:31:49 PM 37.0652 -84.9040 237° Southwest 386 444 40,000  Level FlightAware ADS-B
Fri 11:32:24 PM 37.0317 -84.9699 238° Southwest 386 444 40,000  Level FlightAware ADS-B
Fri 11:32:56 PM 37.0006 -85.0321 238° Southwest 387 445 40,000  Level FlightAware ADS-B
Fri 11:33:56 PM 36.9424 -85.1452 237° Southwest 385 443 40,000  Level FlightAware ADS-B
Fri 11:34:23 PM 36.9173 -85.1939 237° Southwest 385 443 40,000  Level FlightAware ADS-B
Fri 11:34:56 PM 36.8852 -85.2573 238° Southwest 384 442 40,000  Level FlightAware ADS-B
Fri 11:35:26 PM 36.8565 -85.3129 237° Southwest 382 440 40,000  Level FlightAware ADS-B
Fri 11:35:57 PM 36.8271 -85.3704 237° Southwest 381 438 40,000  Level FlightAware ADS-B
Fri 11:36:30 PM 36.7956 -85.4312 237° Southwest 380 437 40,000  Level FlightAware ADS-B
Fri 11:37:00 PM 36.7668 -85.4866 237° Southwest 379 436 40,000  Level FlightAware ADS-B
Fri 11:37:32 PM 36.7368 -85.5453 237° Southwest 378 435 40,000  Level FlightAware ADS-B
Fri 11:38:05 PM 36.7058 -85.6054 237° Southwest 375 432 40,000  Level FlightAware ADS-B
Fri 11:38:36 PM 36.6769 -85.6598 236° Southwest 374 430 40,000  Level FlightAware ADS-B
Fri 11:39:06 PM 36.6486 -85.7154 238° Southwest 371 427 40,000  Level FlightAware ADS-B
Fri 11:39:36 PM 36.6205 -85.7691 237° Southwest 370 426 40,000  Level FlightAware ADS-B
Fri 11:40:06 PM 36.5922 -85.8229 237° Southwest 370 426 40,000  Level FlightAware ADS-B
Fri 11:40:36 PM 36.5641 -85.8765 237° Southwest 371 427 40,000  Level FlightAware ADS-B
Fri 11:41:07 PM 36.5358 -85.9302 237° Southwest 371 427 40,000  Level FlightAware ADS-B
Fri 11:41:37 PM 36.5075 -85.9855 238° Southwest 371 427 40,000  Level FlightAware ADS-B
Fri 11:42:09 PM 36.4774 -86.0425 237° Southwest 369 425 40,000  Level FlightAware ADS-B
Fri 11:42:56 PM 36.4350 -86.1240 237° Southwest 365 420 40,000  Level FlightAware ADS-B
Fri 11:43:36 PM 36.3980 -86.1920 236° Southwest 364 419 40,000  Level FlightAware ADS-B
Fri 11:44:21 PM 36.3570 -86.2700 237° Southwest 361 415 40,000  Level FlightAware ADS-B
Fri 11:44:52 PM 36.3272 -86.3274 237° Southwest 361 415 40,000  Level FlightAware ADS-B
Fri 11:45:28 PM 36.2943 -86.3894 237° Southwest 358 412 40,000  Level FlightAware ADS-B
Fri 11:46:00 PM 36.2655 -86.4423 236° Southwest 357 411 40,000  Level FlightAware ADS-B
Fri 11:46:30 PM 36.2384 -86.4934 237° Southwest 354 407 40,000  Level FlightAware ADS-B
Fri 11:47:03 PM 36.2081 -86.5508 237° Southwest 352 405 40,000  Level FlightAware ADS-B
Fri 11:47:34 PM 36.1804 -86.6025 236° Southwest 347 399 40,000  Level FlightAware ADS-B
Fri 11:48:34 PM 36.1312 -86.7028 239° Southwest 344 396 40,000  Level FlightAware ADS-B
Fri 11:48:37 PM 36.1293 -86.7082 246° West 339 390 40,000  Level FlightAware ADS-B
Fri 11:49:10 PM 36.1105 -86.7655 248° West 338 389 40,000  Level FlightAware ADS-B
Fri 11:49:41 PM 36.0930 -86.8230 249° West 337 388 40,000  Level FlightAware ADS-B
Fri 11:50:12 PM 36.0757 -86.8769 248° West 337 388 40,000  Level FlightAware ADS-B
Fri 11:50:42 PM 36.0583 -86.9326 249° West 338 389 40,000  Level FlightAware ADS-B
Fri 11:51:13 PM 36.0403 -86.9882 248° West 339 390 40,000 -194 Level FlightAware ADS-B
Fri 11:51:44 PM 36.0223 -87.0439 248° West 338 389 39,800 -774 Descending FlightAware ADS-B
Fri 11:52:15 PM 36.0049 -87.0980 248° West 341 392 39,200 -1,377 Descending FlightAware ADS-B
Fri 11:52:45 PM 35.9872 -87.1544 249° West 345 397 38,400 -1,672 Descending FlightAware ADS-B
Fri 11:53:16 PM 35.9689 -87.2099 248° West 354 407 37,500 -1,475 Descending FlightAware ADS-B
Fri 11:53:46 PM 35.9506 -87.2667 248° West 356 410 36,900 -947 Descending FlightAware ADS-B
Fri 11:54:51 PM 35.9130 -87.3850 249° West 351 404 36,000 -514 Descending FlightAware ADS-B
Fri 11:55:31 PM 35.8880 -87.4600 248° West 348 400 36,000 -565 Level FlightAware ADS-B
Fri 11:56:16 PM 35.8610 -87.5450 249° West 348 400 35,200 -918 Descending FlightAware ADS-B
Fri 11:56:56 PM 35.8370 -87.6180 248° West 341 392 34,700 -1,575 Descending FlightAware ADS-B
Fri 11:57:36 PM 35.8130 -87.6900 248° West 345 397 33,100 -2,471 Descending FlightAware ADS-B
Fri 11:58:21 PM 35.7870 -87.7720 249° West 347 399 31,200 -2,259 Descending FlightAware ADS-B
Fri 11:59:01 PM 35.7640 -87.8400 247° West 338 389 29,900 -1,326 Descending FlightAware ADS-B
Fri 11:59:56 PM 35.7330 -87.9320 247° West 329 379 29,100 -1,380 Descending FlightAware ADS-B
Sat 12:00:41 AM 35.7080 -88.0100 248° West 295 339 27,600 -1,350 Descending FlightAware ADS-B
Sat 12:01:16 AM 35.6910 -88.0590 247° West 295 339 27,300 -212 Descending FlightAware ADS-B
Sat 12:02:06 AM 35.6690 -88.1250 248° West 295 339 27,300  Level FlightAware ADS-B
Sat 12:02:46 AM 35.6510 -88.1770 247° West 295 339 27,300  Level FlightAware ADS-B
Sat 12:03:26 AM 35.6320 -88.2300 246° West 295 339 27,300  Level FlightAware ADS-B
Sat 12:04:06 AM 35.6140 -88.2820 247° West 295 339 27,300  Level FlightAware ADS-B
Sat 12:04:46 AM 35.5960 -88.3350 247° West 295 339 27,300 -4,541 Level FlightAware ADS-B
Sat 12:05:20 AM 35.5244 -88.4514 247° West 332 382 21,700 -5,043 Descending Memphis Center
Sat 12:06:20 AM 35.4550 -88.5397 226° Southwest 353 406 19,400 -2,150 Descending Memphis Center
Sat 12:07:20 AM 35.3853 -88.6278 226° Southwest 363 418 17,400 -2,000 Descending Memphis Center
Sat 12:08:20 AM 35.3197 -88.7106 226° Southwest 353 406 15,400 -2,050 Descending Memphis Center
Sat 12:09:20 AM 35.2497 -88.7933 224° Southwest 348 400 13,300 -2,050 Descending Memphis Center
Sat 12:10:20 AM 35.1861 -88.8758 227° Southwest 348 400 11,300 -1,600 Descending Memphis Center
Sat 12:11:20 AM 35.1267 -88.9531 227° Southwest 328 377 10,100 -1,100 Descending Memphis Center
Sat 12:12:20 AM 35.0711 -89.0200 225° Southwest 294 338 9,100 -900 Descending Memphis Center
Sat 12:13:20 AM 35.0344 -89.1017 241° Southwest 280 322 8,300 -900 Descending Memphis Center
Sat 12:14:20 AM 35.0331 -89.1856 269° West 268 308 7,300 -1,250 Descending Memphis Center
Sat 12:15:20 AM 35.0361 -89.2792 272° West 279 321 5,800 -1,400 Descending Memphis Center
Sat 12:16:20 AM 35.0408 -89.3681 274° West 272 313 4,500 -900 Descending Memphis Center
Sat 12:17:20 AM 35.0458 -89.4592 274° West 272 313 4,000 -250 Descending Memphis Center
Sat 12:18:20 AM 35.0464 -89.5456 270° West 267 307 4,000 -150 Level Memphis Center
Sat 12:19:20 AM 35.0489 -89.6317 272° West 262 302 3,700 -450 Descending Memphis Center
Sat 12:20:20 AM 35.0536 -89.7053 275° West 236 272 3,100 -350 Descending Memphis Center
Sat 12:21:20 AM 35.0539 -89.7761 270° West 217 250 3,000 -500 Descending Memphis Center
Sat 12:22:20 AM 35.0564 -89.8394 273° West 196 226 2,100 -857 Descending Memphis Center
Sat 12:23:12 AM 35.0500 -89.8833 260° West 138 159 1,400 -716 Descending KMEM
Sat 12:24:09 AM 35.0500 -89.9333 270° West 113 130 800 -632 Descending KMEM
Sat 12:27:00 AM 35.0333 -89.9667 270° West  Level FlightAware Approximate
Sat 12:34:00 AM 35.0424 -89.9767 270° West  Level Estimated
Sat 12:35:00 AM 35.0424 -89.9767 270° West  Level Estimated
Sat 12:36:00 AM 35.0424 -89.9767 270° West  Level Estimated

Login

Don't have an account? Register now (free) for customized features, flight alerts, and more!